Rechercher aéroport 
image banner adimage banner adimage banner ad
image banner ad

MHLC - Goloson

Situé à La Ceiba, Honduras

ICAO - MHLC, IATA - LCE

Données fournies par Airmate  

Information générale

Coordonnées: N15°44'33" W86°51'12"
Élévation : 49 feet MSL.
 
Voir autres Aéroports à Atlantida

Données opérationnelles

Special qualification required
Heure actuelle UTC:
Heure actuelle locale:
Météo
METAR: MHLC 152200Z 02004KT 9999 SCT028TCU SCT090 31/23 Q1008 A2977 NOSIG
TAF: TAF MHLC 151700Z 1518/1618 03010KT 9999 SCT028TCU FEW035CB TX32/1521Z TN23/1612Z BECMG 1523/1603 20005KT 6000 TSSHRA SCT026CB SCT080 BECMG 1603/1607 9999 NSW SCT024 BKN070 BECMG 1613/1617 02010KT
Voir NOTAMs / SUP AIP / TFR affectant cet aéroport [VIEW]
Fréquences de communication: [VIEW]

Pistes:

Identifiant RWYQFULongueur (ft)Largeur (ft)SurfaceLDA (ft)
0767°9675148ASP
25247°9675148

Coordonnées de l'aéroport

Adresse: La Ceiba Honduras

Vue satellite de MHLC